createdAt,value
2024-02-16T00:02:25.900Z,14.30
2024-02-16T00:07:29.313Z,14.21
2024-02-16T00:12:33.255Z,14.26
2024-02-16T00:17:38.983Z,14.32
2024-02-16T00:22:42.464Z,14.19
2024-02-16T00:27:45.962Z,14.09
2024-02-16T00:32:51.167Z,14.14
2024-02-16T00:37:54.640Z,14.22
2024-02-16T00:42:58.170Z,14.31
2024-02-16T00:48:05.076Z,14.07
2024-02-16T00:53:09.231Z,14.05
2024-02-16T00:58:12.669Z,14.00
2024-02-16T01:03:17.617Z,14.06
2024-02-16T01:08:21.090Z,14.13
2024-02-16T01:13:24.480Z,14.04
2024-02-16T01:18:31.312Z,14.03
2024-02-16T01:23:34.890Z,13.99
2024-02-16T01:28:39.483Z,13.94
2024-02-16T01:33:44.560Z,13.88
2024-02-16T01:38:48.204Z,13.85
2024-02-16T01:43:54.335Z,13.65
2024-02-16T01:49:00.086Z,13.82
2024-02-16T01:54:04.074Z,13.93
2024-02-16T01:59:07.494Z,13.98
2024-02-16T02:04:12.536Z,13.95
2024-02-16T02:09:16.047Z,13.95
2024-02-16T02:14:19.478Z,13.97
2024-02-16T02:19:26.133Z,13.97
2024-02-16T02:24:31.449Z,13.94
2024-02-16T02:29:34.923Z,13.96
2024-02-16T02:34:38.809Z,13.85
2024-02-16T02:39:45.362Z,13.73
2024-02-16T02:44:51.600Z,13.60
2024-02-16T02:49:55.158Z,13.72
2024-02-16T02:54:59.972Z,13.74
2024-02-16T03:00:11.924Z,13.65
2024-02-16T03:05:15.893Z,13.53
2024-02-16T03:10:23.489Z,13.54
2024-02-16T03:15:26.949Z,13.64
2024-02-16T03:20:30.977Z,13.72
2024-02-16T03:25:35.803Z,13.75
2024-02-16T03:30:39.717Z,13.52
2024-02-16T03:35:43.244Z,13.53
2024-02-16T03:40:48.029Z,13.56
2024-02-16T03:45:51.975Z,13.64
2024-02-16T03:50:55.531Z,13.69
2024-02-16T03:56:00.822Z,13.63
2024-02-16T04:01:04.218Z,13.63
2024-02-16T04:06:08.050Z,13.46
2024-02-16T04:11:16.607Z,13.26
2024-02-16T04:16:22.349Z,13.14
2024-02-16T04:21:25.917Z,13.34
2024-02-16T04:26:30.815Z,13.43
2024-02-16T04:31:34.171Z,13.51
2024-02-16T04:36:37.613Z,13.47
2024-02-16T04:41:42.460Z,13.37
2024-02-16T04:46:45.954Z,13.41
2024-02-16T04:51:49.506Z,13.46
2024-02-16T04:56:54.336Z,13.32
2024-02-16T05:01:57.410Z,13.44
2024-02-16T05:07:00.972Z,13.33
2024-02-16T05:12:06.481Z,13.42
2024-02-16T05:17:09.868Z,13.28
2024-02-16T05:22:13.215Z,13.27
2024-02-16T05:27:18.186Z,13.14
2024-02-16T05:32:21.278Z,13.14
2024-02-16T05:37:24.648Z,13.07
2024-02-16T05:42:29.847Z,13.04
2024-02-16T05:47:33.277Z,13.14
2024-02-16T05:52:36.640Z,13.17
2024-02-16T05:57:41.738Z,13.11
2024-02-16T06:02:45.192Z,13.11
2024-02-16T06:07:48.935Z,13.11
2024-02-16T06:12:53.936Z,13.14
2024-02-16T06:17:57.174Z,13.12
2024-02-16T06:23:00.604Z,13.13
2024-02-16T06:28:06.300Z,13.15
2024-02-16T06:33:09.812Z,13.15
2024-02-16T06:38:13.244Z,13.08
2024-02-16T06:43:18.038Z,12.99
2024-02-16T06:48:21.467Z,13.03
2024-02-16T06:53:24.909Z,12.97
2024-02-16T06:58:29.756Z,12.94
2024-02-16T07:03:33.133Z,12.95
2024-02-16T07:08:36.514Z,12.95
2024-02-16T07:13:44.390Z,12.99
2024-02-16T07:18:48.054Z,12.97
2024-02-16T07:23:52.454Z,12.73
2024-02-16T07:28:57.356Z,12.79
2024-02-16T07:34:00.940Z,12.79
2024-02-16T07:39:06.194Z,12.85
2024-02-16T07:44:11.268Z,12.87
2024-02-16T07:49:15.030Z,12.90
2024-02-16T07:54:18.750Z,12.80
2024-02-16T07:59:25.195Z,12.75
2024-02-16T08:04:28.596Z,12.86
2024-02-16T08:09:32.035Z,12.98
2024-02-16T08:14:37.675Z,13.10
2024-02-16T08:19:41.615Z,13.26
2024-02-16T08:24:47.550Z,13.35
2024-02-16T08:29:53.335Z,13.31
2024-02-16T08:34:57.988Z,13.32
2024-02-16T08:40:01.742Z,13.39
2024-02-16T08:45:07.433Z,13.48
2024-02-16T08:50:13.131Z,13.73
2024-02-16T08:55:18.342Z,14.03
2024-02-16T09:00:24.842Z,14.14
2024-02-16T09:05:28.445Z,14.33
2024-02-16T09:10:32.323Z,14.36
2024-02-16T09:15:38.277Z,14.07
2024-02-16T09:20:41.875Z,13.92
2024-02-16T09:25:47.322Z,14.15
2024-02-16T09:30:52.505Z,14.31
2024-02-16T09:35:57.345Z,14.42
2024-02-16T09:41:00.986Z,14.69
2024-02-16T09:46:07.316Z,14.78
2024-02-16T09:51:11.024Z,14.91
2024-02-16T09:56:14.547Z,15.14
2024-02-16T10:01:24.835Z,15.45
2024-02-16T10:06:28.782Z,15.51
2024-02-16T10:11:33.637Z,15.69
2024-02-16T10:16:38.869Z,15.47
2024-02-16T10:21:43.017Z,15.62
2024-02-16T10:26:46.463Z,16.20
2024-02-16T10:31:52.847Z,16.47
2024-02-16T10:36:57.747Z,16.24
2024-02-16T10:42:02.892Z,16.17
2024-02-16T10:47:07.976Z,16.30
2024-02-16T10:52:13.491Z,16.54
2024-02-16T10:57:19.766Z,17.06
2024-02-16T11:02:25.238Z,17.51
2024-02-16T11:07:28.836Z,17.09
2024-02-16T11:12:37.854Z,18.15
2024-02-16T11:17:42.898Z,19.16
2024-02-16T11:22:47.094Z,20.59
2024-02-16T11:27:51.036Z,22.02
2024-02-16T11:32:55.964Z,22.06
2024-02-16T11:37:59.595Z,20.74
2024-02-16T11:43:04.254Z,20.09
2024-02-16T11:48:11.351Z,19.43
2024-02-16T11:53:19.560Z,18.66
2024-02-16T11:58:24.235Z,18.52
2024-02-16T12:03:29.735Z,18.52
2024-02-16T12:08:35.922Z,18.68
2024-02-16T12:13:39.348Z,18.53
2024-02-16T12:18:44.448Z,18.30
2024-02-16T12:23:48.414Z,18.37
2024-02-16T12:28:51.900Z,18.45
2024-02-16T12:33:57.084Z,18.42
2024-02-16T12:39:00.565Z,18.66
2024-02-16T12:44:04.522Z,18.52
2024-02-16T12:49:09.586Z,18.87
2024-02-16T12:54:16.502Z,19.06
2024-02-16T12:59:20.479Z,19.41
2024-02-16T13:04:25.929Z,19.03
2024-02-16T13:09:29.933Z,19.42
2024-02-16T13:14:33.427Z,19.05
2024-02-16T13:19:38.417Z,18.93
2024-02-16T13:24:43.283Z,18.40
2024-02-16T13:29:47.115Z,18.05
2024-02-16T13:34:52.198Z,18.68
2024-02-16T13:39:55.674Z,19.01
2024-02-16T13:44:59.892Z,18.57
2024-02-16T13:50:05.667Z,18.57
2024-02-16T13:55:09.937Z,18.90
2024-02-16T14:00:14.080Z,18.97
2024-02-16T14:05:19.426Z,19.00
2024-02-16T14:10:22.905Z,18.67
2024-02-16T14:15:28.222Z,18.69
2024-02-16T14:20:34.558Z,18.39
2024-02-16T14:25:39.224Z,18.43
2024-02-16T14:30:43.749Z,18.33
2024-02-16T14:35:49.716Z,18.26
2024-02-16T14:40:53.245Z,18.13
2024-02-16T14:45:56.797Z,18.00
2024-02-16T14:51:02.382Z,18.16
2024-02-16T14:56:06.778Z,18.11
2024-02-16T15:01:11.178Z,17.89
2024-02-16T15:06:16.116Z,17.85
2024-02-16T15:11:19.651Z,17.70
2024-02-16T15:16:23.151Z,17.80
2024-02-16T15:21:29.731Z,17.97
2024-02-16T15:26:33.623Z,18.10
2024-02-16T15:31:37.566Z,18.01
2024-02-16T15:36:42.487Z,18.32
2024-02-16T15:41:46.175Z,18.31
2024-02-16T15:46:49.583Z,18.44
2024-02-16T15:51:54.470Z,18.61
2024-02-16T15:56:59.643Z,19.14
2024-02-16T16:02:05.383Z,18.84
2024-02-16T16:07:12.787Z,18.38
2024-02-16T16:12:16.308Z,18.26
2024-02-16T16:17:20.315Z,18.25
2024-02-16T16:22:25.596Z,18.44
2024-02-16T16:27:29.305Z,18.22
2024-02-16T16:32:33.079Z,18.25
2024-02-16T16:37:38.284Z,18.39
2024-02-16T16:42:41.938Z,18.54
2024-02-16T16:47:45.473Z,18.33
2024-02-16T16:52:51.137Z,18.31
2024-02-16T16:57:55.854Z,18.42
2024-02-16T17:03:01.130Z,18.64
2024-02-16T17:08:06.574Z,18.72
2024-02-16T17:13:10.065Z,18.44
2024-02-16T17:18:13.987Z,18.21
2024-02-16T17:23:19.474Z,17.87
2024-02-16T17:28:22.902Z,17.61
2024-02-16T17:33:26.722Z,17.49
2024-02-16T17:38:32.010Z,17.42
2024-02-16T17:43:35.622Z,17.26
2024-02-16T17:48:39.504Z,17.19
2024-02-16T17:53:44.411Z,17.07
2024-02-16T17:58:48.049Z,17.00
2024-02-16T18:03:51.961Z,16.97
2024-02-16T18:08:57.052Z,16.83
2024-02-16T18:14:00.606Z,16.74
2024-02-16T18:19:05.224Z,16.62
2024-02-16T18:24:10.522Z,16.53
2024-02-16T18:29:14.014Z,16.53
2024-02-16T18:34:18.799Z,16.44
2024-02-16T18:39:25.607Z,16.27
2024-02-16T18:44:29.402Z,16.23
2024-02-16T18:49:33.170Z,16.19
2024-02-16T18:54:38.299Z,16.11
2024-02-16T18:59:41.702Z,15.80
2024-02-16T19:04:45.665Z,15.72
2024-02-16T19:09:52.733Z,15.71
2024-02-16T19:14:56.254Z,15.41
2024-02-16T19:20:00.091Z,15.20
2024-02-16T19:25:05.377Z,15.08
2024-02-16T19:30:10.869Z,15.02
2024-02-16T19:35:16.061Z,14.91
2024-02-16T19:40:21.137Z,14.82
2024-02-16T19:45:28.988Z,14.73
2024-02-16T19:50:33.422Z,14.62
2024-02-16T19:55:38.459Z,14.56
2024-02-16T20:00:41.939Z,14.40
2024-02-16T20:05:45.377Z,14.37
2024-02-16T20:10:50.251Z,14.24
2024-02-16T20:15:54.053Z,14.24
2024-02-16T20:20:57.985Z,14.17
2024-02-16T20:26:04.471Z,14.06
2024-02-16T20:31:10.407Z,14.19
2024-02-16T20:36:13.900Z,14.14
2024-02-16T20:41:20.052Z,14.08
2024-02-16T20:46:23.464Z,14.04
2024-02-16T20:51:26.934Z,14.09
2024-02-16T20:56:31.766Z,13.78
2024-02-16T21:01:35.239Z,13.87
2024-02-16T21:06:39.224Z,13.93
2024-02-16T21:11:44.241Z,13.95
2024-02-16T21:16:48.738Z,13.74
2024-02-16T21:21:52.698Z,13.68
2024-02-16T21:27:00.911Z,13.57
2024-02-16T21:32:04.750Z,13.52
2024-02-16T21:37:08.660Z,13.60
2024-02-16T21:42:15.312Z,13.62
2024-02-16T21:47:18.938Z,13.61
2024-02-16T21:52:22.544Z,13.49
2024-02-16T21:57:27.906Z,13.49
2024-02-16T22:02:31.408Z,13.54
2024-02-16T22:07:34.852Z,13.24
2024-02-16T22:12:40.793Z,13.09
2024-02-16T22:17:44.726Z,13.18
2024-02-16T22:22:48.296Z,13.23
2024-02-16T22:27:53.542Z,13.24
2024-02-16T22:32:57.466Z,13.29
2024-02-16T22:38:00.896Z,13.30
2024-02-16T22:43:06.210Z,12.95
2024-02-16T22:48:10.672Z,13.09
2024-02-16T22:53:14.144Z,12.98
2024-02-16T22:58:18.955Z,12.85
2024-02-16T23:03:22.856Z,12.90
2024-02-16T23:08:26.941Z,12.73
2024-02-16T23:13:31.824Z,12.73
2024-02-16T23:18:35.300Z,12.71
2024-02-16T23:23:38.798Z,12.65
2024-02-16T23:28:43.665Z,12.37
2024-02-16T23:33:47.424Z,12.34
2024-02-16T23:38:51.277Z,12.34
2024-02-16T23:43:57.414Z,12.23
2024-02-16T23:49:01.060Z,11.99
2024-02-16T23:54:04.628Z,11.95
2024-02-16T23:59:09.458Z,11.90
